Diane H — WUR7250 — position and weather

sailwx.info

Track history (hours):
 
Tides and Currents Weather Stations Pressure Air Temp Water Temp Dewpoint Dewpoint Depression Visibility Wind Speed Wind Dir Waves Ship Positions

Diane H

Owner: BOYER TOWING INC, KETCHIKAN, AK. More information available from US FCC via Universal Licensing System and Coast Guard Vessel Documentation Center.

Last reported at 2017-Jan-19 12:33 UTC. Time now 2017-Jan-19 13:07 UTC.
Position N 47°34' W 122°21'.

Type: Towing. MMSI: 366673090.

Date/timePositionNaut miles runAvg speedWind from/ knotsBaromVisibWave heightAir tempDewpointWater temp
2017-Jan-19 12:33N 47°34' W 122°21'1 0.1
2017-Jan-19 02:10N 47°32' W 122°20'2 2.5
2017-Jan-19 01:33N 47°34' W 122°21'0 0.0
2017-Jan-18 15:32N 47°34' W 122°21'3 3.3
2017-Jan-18 14:34N 47°36' W 122°25'4 3.9
2017-Jan-18 13:34N 47°37' W 122°30'7 6.7
2017-Jan-18 12:32N 47°34' W 122°21'2 0.1
2017-Jan-17 23:33N 47°33' W 122°20'2 1.7
2017-Jan-17 22:32N 47°34' W 122°21'0 0.0
2017-Jan-17 21:33N 47°34' W 122°21'0 0.0
2017-Jan-17 20:32N 47°34' W 122°21'0 0.0
2017-Jan-17 19:32N 47°34' W 122°21'0 0.0
2017-Jan-17 18:33N 47°34' W 122°21'0 0.0
2017-Jan-17 17:32N 47°34' W 122°21'0 0.0
2017-Jan-17 16:33N 47°34' W 122°21'0 0.0
2017-Jan-17 15:33N 47°34' W 122°21'2 1.9
2017-Jan-17 14:31N 47°32' W 122°20'0 0.0
2017-Jan-17 03:04N 47°32' W 122°20'2 3.5
2017-Jan-17 02:33N 47°34' W 122°21'7 7.0
2017-Jan-17 01:30N 47°37' W 122°31'1 1.1
2017-Jan-17 00:33N 47°37' W 122°29'7 6.7
2017-Jan-16 23:33N 47°43' W 122°26'7 7.1
2017-Jan-16 22:33N 47°50' W 122°23'6 6.1
2017-Jan-16 21:33N 47°55' W 122°20'8 1.0
2017-Jan-16 13:33N 48°00' W 122°11'6 6.2
2017-Jan-16 12:33N 47°57' W 122°19'8 7.9
2017-Jan-16 11:33N 47°50' W 122°23'8 7.8
2017-Jan-16 10:33N 47°42' W 122°26'6 6.1
2017-Jan-16 09:33N 47°37' W 122°31'7 6.9
2017-Jan-16 08:33N 47°34' W 122°21'4 0.1
2017-Jan-14 20:34N 47°36' W 122°26'2 2.2
2017-Jan-14 19:33N 47°37' W 122°29'8 7.5
2017-Jan-14 18:33N 47°44' W 122°26'8 7.8
2017-Jan-14 17:33N 47°51' W 122°22'9 8.8
2017-Jan-14 16:29N 47°59' W 122°14'2 2.5
2017-Jan-14 15:33N 47°60' W 122°11'1 0.3
2017-Jan-14 10:29N 48°01' W 122°12'4 4.4
2017-Jan-14 09:33N 47°58' W 122°16'7 6.9
2017-Jan-14 08:33N 47°52' W 122°22'7 7.2
2017-Jan-14 07:33N 47°46' W 122°25'8 7.7
2017-Jan-14 06:33N 47°38' W 122°28'2 2.0
2017-Jan-14 05:32N 47°37' W 122°31'0 0.0
2017-Jan-14 04:32N 47°37' W 122°31'0 0.0
2017-Jan-14 03:32N 47°37' W 122°31'8 2.0
2017-Jan-13 23:33N 47°44' W 122°25'8 8.2
2017-Jan-13 22:34N 47°52' W 122°22'8 8.0
2017-Jan-13 21:33N 47°59' W 122°15'3 3.4
2017-Jan-13 20:33N 48°00' W 122°11'1 0.1
2017-Jan-13 13:04N 47°59' W 122°11'2 4.3
2017-Jan-13 12:33N 48°00' W 122°13'7 6.6
2017-Jan-13 11:33N 47°55' W 122°20'8 8.2
2017-Jan-13 10:33N 47°48' W 122°24'8 7.7
2017-Jan-13 09:33N 47°40' W 122°27'4 3.9
2017-Jan-13 08:33N 47°37' W 122°31'0 0.0
2017-Jan-13 07:31N 47°37' W 122°31'0 0.0
2017-Jan-13 06:31N 47°37' W 122°31'0 0.0
2017-Jan-13 05:32N 47°37' W 122°31'0 0.0
2017-Jan-13 04:31N 47°37' W 122°31'0 0.0
2017-Jan-13 03:31N 47°37' W 122°31'0 0.0
2017-Jan-13 02:31N 47°37' W 122°31'0 0.1
2017-Jan-13 01:31N 47°37' W 122°30'0 0.1
2017-Jan-13 00:31N 47°37' W 122°30'5 5.0
2017-Jan-12 23:33N 47°41' W 122°26'7 7.3
2017-Jan-12 22:33N 47°48' W 122°24'8 8.1
2017-Jan-12 21:33N 47°56' W 122°19'6 6.4
2017-Jan-12 20:33N 48°01' W 122°13'2 0.3
2017-Jan-12 13:11N 47°59' W 122°11'2 3.1
2017-Jan-12 12:33N 47°60' W 122°13'5 5.1
2017-Jan-12 11:33N 47°57' W 122°20'8 8.1
2017-Jan-12 10:33N 47°50' W 122°24'8 8.0
2017-Jan-12 09:33N 47°42' W 122°26'5 5.3
2017-Jan-12 08:32N 47°37' W 122°31'0 0.0
2017-Jan-12 07:31N 47°37' W 122°31'0 0.0
2017-Jan-12 06:31N 47°37' W 122°31'0 0.0
2017-Jan-12 05:31N 47°37' W 122°31'0 0.0
2017-Jan-12 04:31N 47°37' W 122°31'0 0.0
2017-Jan-12 03:31N 47°37' W 122°31'0 0.0
2017-Jan-12 02:31N 47°37' W 122°31'0 0.0
2017-Jan-12 01:31N 47°37' W 122°31'0 0.2
2017-Jan-12 00:34N 47°37' W 122°30'6 6.2
2017-Jan-11 23:34N 47°43' W 122°26'8 7.9
2017-Jan-11 22:34N 47°50' W 122°23'9 8.3
2017-Jan-11 21:32N 47°58' W 122°17'4 3.8
2017-Jan-11 20:33N 48°01' W 122°13'2 1.9
2017-Jan-11 19:28N 47°60' W 122°11'0 0.0
2017-Jan-11 13:20N 47°59' W 122°11'2 2.4
2017-Jan-11 12:33N 47°60' W 122°13'8 7.9
2017-Jan-11 11:33N 47°54' W 122°22'7 6.8
2017-Jan-11 10:34N 47°49' W 122°28'8 7.8
2017-Jan-11 09:34N 47°41' W 122°29'4 3.9
2017-Jan-11 08:29N 47°37' W 122°31'0 0.0
2017-Jan-11 07:33N 47°37' W 122°31'0 0.0
2017-Jan-11 06:32N 47°37' W 122°31'0 0.0
2017-Jan-11 05:32N 47°37' W 122°31'0 0.0
2017-Jan-11 04:32N 47°37' W 122°31'0 0.2
2017-Jan-11 03:33N 47°37' W 122°30'2 1.7
2017-Jan-11 02:33N 47°39' W 122°29'7 7.0
2017-Jan-11 01:34N 47°46' W 122°28'7 7.1
2017-Jan-11 00:34N 47°53' W 122°29'6 5.7
2017-Jan-10 23:33N 47°55' W 122°22'7 6.8
2017-Jan-10 22:32N 47°59' W 122°14'2 0.2
2017-Jan-10 12:17N 47°59' W 122°11'2 2.8
2017-Jan-10 11:33N 47°60' W 122°13'3 2.6
2017-Jan-10 10:32N 48°01' W 122°17'2 1.9
2017-Jan-10 09:31N 48°00' W 122°20'2 1.9
2017-Jan-10 08:30N 48°01' W 122°17'3 2.9
2017-Jan-10 07:33N 48°02' W 122°21'4 4.2
2017-Jan-10 06:33N 47°58' W 122°19'4 4.1
2017-Jan-10 05:34N 47°54' W 122°21'4 4.2
2017-Jan-10 04:33N 47°50' W 122°23'4 4.4
2017-Jan-10 03:33N 47°46' W 122°25'5 5.0
2017-Jan-10 02:33N 47°41' W 122°26'5 4.4
2017-Jan-10 01:31N 47°37' W 122°30'2 1.7
2017-Jan-10 00:33N 47°38' W 122°28'6 5.6
2017-Jan-09 23:33N 47°43' W 122°26'5 5.2
2017-Jan-09 22:33N 47°48' W 122°24'6 5.9
2017-Jan-09 21:33N 47°54' W 122°21'6 5.8
2017-Jan-09 20:33N 47°58' W 122°16'4 3.8
2017-Jan-09 19:33N 48°00' W 122°11'  
Track history (hours):
 
Tides and Currents Weather Stations Pressure Air Temp Water Temp Dewpoint Dewpoint Depression Visibility Wind Speed Wind Dir Waves Ship Positions

Diane H

Owner: BOYER TOWING INC, KETCHIKAN, AK. More information available from US FCC via Universal Licensing System and Coast Guard Vessel Documentation Center.

Last reported at 2017-Jan-19 12:33 UTC. Time now 2017-Jan-19 13:07 UTC.
Position N 47°34' W 122°21'.

Type: Towing. MMSI: 366673090.

Date/timePositionNaut miles runAvg speedWind from/ knotsBaromVisibWave heightAir tempDewpointWater temp
2017-Jan-19 12:33N 47°34' W 122°21'1 0.1
2017-Jan-19 02:10N 47°32' W 122°20'2 2.5
2017-Jan-19 01:33N 47°34' W 122°21'0 0.0
2017-Jan-18 15:32N 47°34' W 122°21'3 3.3
2017-Jan-18 14:34N 47°36' W 122°25'4 3.9
2017-Jan-18 13:34N 47°37' W 122°30'7 6.7
2017-Jan-18 12:32N 47°34' W 122°21'2 0.1
2017-Jan-17 23:33N 47°33' W 122°20'2 1.7
2017-Jan-17 22:32N 47°34' W 122°21'0 0.0
2017-Jan-17 21:33N 47°34' W 122°21'0 0.0
2017-Jan-17 20:32N 47°34' W 122°21'0 0.0
2017-Jan-17 19:32N 47°34' W 122°21'0 0.0
2017-Jan-17 18:33N 47°34' W 122°21'0 0.0
2017-Jan-17 17:32N 47°34' W 122°21'0 0.0
2017-Jan-17 16:33N 47°34' W 122°21'0 0.0
2017-Jan-17 15:33N 47°34' W 122°21'2 1.9
2017-Jan-17 14:31N 47°32' W 122°20'0 0.0
2017-Jan-17 03:04N 47°32' W 122°20'2 3.5
2017-Jan-17 02:33N 47°34' W 122°21'7 7.0
2017-Jan-17 01:30N 47°37' W 122°31'1 1.1
2017-Jan-17 00:33N 47°37' W 122°29'7 6.7
2017-Jan-16 23:33N 47°43' W 122°26'7 7.1
2017-Jan-16 22:33N 47°50' W 122°23'6 6.1
2017-Jan-16 21:33N 47°55' W 122°20'8 1.0
2017-Jan-16 13:33N 48°00' W 122°11'6 6.2
2017-Jan-16 12:33N 47°57' W 122°19'8 7.9
2017-Jan-16 11:33N 47°50' W 122°23'8 7.8
2017-Jan-16 10:33N 47°42' W 122°26'6 6.1
2017-Jan-16 09:33N 47°37' W 122°31'7 6.9
2017-Jan-16 08:33N 47°34' W 122°21'4 0.1
2017-Jan-14 20:34N 47°36' W 122°26'2 2.2
2017-Jan-14 19:33N 47°37' W 122°29'8 7.5
2017-Jan-14 18:33N 47°44' W 122°26'8 7.8
2017-Jan-14 17:33N 47°51' W 122°22'9 8.8
2017-Jan-14 16:29N 47°59' W 122°14'2 2.5
2017-Jan-14 15:33N 47°60' W 122°11'1 0.3
2017-Jan-14 10:29N 48°01' W 122°12'4 4.4
2017-Jan-14 09:33N 47°58' W 122°16'7 6.9
2017-Jan-14 08:33N 47°52' W 122°22'7 7.2
2017-Jan-14 07:33N 47°46' W 122°25'8 7.7
2017-Jan-14 06:33N 47°38' W 122°28'2 2.0
2017-Jan-14 05:32N 47°37' W 122°31'0 0.0
2017-Jan-14 04:32N 47°37' W 122°31'0 0.0
2017-Jan-14 03:32N 47°37' W 122°31'8 2.0
2017-Jan-13 23:33N 47°44' W 122°25'8 8.2
2017-Jan-13 22:34N 47°52' W 122°22'8 8.0
2017-Jan-13 21:33N 47°59' W 122°15'3 3.4
2017-Jan-13 20:33N 48°00' W 122°11'1 0.1
2017-Jan-13 13:04N 47°59' W 122°11'2 4.3
2017-Jan-13 12:33N 48°00' W 122°13'7 6.6
2017-Jan-13 11:33N 47°55' W 122°20'8 8.2
2017-Jan-13 10:33N 47°48' W 122°24'8 7.7
2017-Jan-13 09:33N 47°40' W 122°27'4 3.9
2017-Jan-13 08:33N 47°37' W 122°31'0 0.0
2017-Jan-13 07:31N 47°37' W 122°31'0 0.0
2017-Jan-13 06:31N 47°37' W 122°31'0 0.0
2017-Jan-13 05:32N 47°37' W 122°31'0 0.0
2017-Jan-13 04:31N 47°37' W 122°31'0 0.0
2017-Jan-13 03:31N 47°37' W 122°31'0 0.0
2017-Jan-13 02:31N 47°37' W 122°31'0 0.1
2017-Jan-13 01:31N 47°37' W 122°30'0 0.1
2017-Jan-13 00:31N 47°37' W 122°30'5 5.0
2017-Jan-12 23:33N 47°41' W 122°26'7 7.3
2017-Jan-12 22:33N 47°48' W 122°24'8 8.1
2017-Jan-12 21:33N 47°56' W 122°19'6 6.4
2017-Jan-12 20:33N 48°01' W 122°13'2 0.3
2017-Jan-12 13:11N 47°59' W 122°11'2 3.1
2017-Jan-12 12:33N 47°60' W 122°13'5 5.1
2017-Jan-12 11:33N 47°57' W 122°20'8 8.1
2017-Jan-12 10:33N 47°50' W 122°24'8 8.0
2017-Jan-12 09:33N 47°42' W 122°26'5 5.3
2017-Jan-12 08:32N 47°37' W 122°31'0 0.0
2017-Jan-12 07:31N 47°37' W 122°31'0 0.0
2017-Jan-12 06:31N 47°37' W 122°31'0 0.0
2017-Jan-12 05:31N 47°37' W 122°31'0 0.0
2017-Jan-12 04:31N 47°37' W 122°31'0 0.0
2017-Jan-12 03:31N 47°37' W 122°31'0 0.0
2017-Jan-12 02:31N 47°37' W 122°31'0 0.0
2017-Jan-12 01:31N 47°37' W 122°31'0 0.2
2017-Jan-12 00:34N 47°37' W 122°30'6 6.2
2017-Jan-11 23:34N 47°43' W 122°26'8 7.9
2017-Jan-11 22:34N 47°50' W 122°23'9 8.3
2017-Jan-11 21:32N 47°58' W 122°17'4 3.8
2017-Jan-11 20:33N 48°01' W 122°13'2 1.9
2017-Jan-11 19:28N 47°60' W 122°11'0 0.0
2017-Jan-11 13:20N 47°59' W 122°11'2 2.4
2017-Jan-11 12:33N 47°60' W 122°13'8 7.9
2017-Jan-11 11:33N 47°54' W 122°22'7 6.8
2017-Jan-11 10:34N 47°49' W 122°28'8 7.8
2017-Jan-11 09:34N 47°41' W 122°29'4 3.9
2017-Jan-11 08:29N 47°37' W 122°31'0 0.0
2017-Jan-11 07:33N 47°37' W 122°31'0 0.0
2017-Jan-11 06:32N 47°37' W 122°31'0 0.0
2017-Jan-11 05:32N 47°37' W 122°31'0 0.0
2017-Jan-11 04:32N 47°37' W 122°31'0 0.2
2017-Jan-11 03:33N 47°37' W 122°30'2 1.7
2017-Jan-11 02:33N 47°39' W 122°29'7 7.0
2017-Jan-11 01:34N 47°46' W 122°28'7 7.1
2017-Jan-11 00:34N 47°53' W 122°29'6 5.7
2017-Jan-10 23:33N 47°55' W 122°22'7 6.8
2017-Jan-10 22:32N 47°59' W 122°14'2 0.2
2017-Jan-10 12:17N 47°59' W 122°11'2 2.8
2017-Jan-10 11:33N 47°60' W 122°13'3 2.6
2017-Jan-10 10:32N 48°01' W 122°17'2 1.9
2017-Jan-10 09:31N 48°00' W 122°20'2 1.9
2017-Jan-10 08:30N 48°01' W 122°17'3 2.9
2017-Jan-10 07:33N 48°02' W 122°21'4 4.2
2017-Jan-10 06:33N 47°58' W 122°19'4 4.1
2017-Jan-10 05:34N 47°54' W 122°21'4 4.2
2017-Jan-10 04:33N 47°50' W 122°23'4 4.4
2017-Jan-10 03:33N 47°46' W 122°25'5 5.0
2017-Jan-10 02:33N 47°41' W 122°26'5 4.4
2017-Jan-10 01:31N 47°37' W 122°30'2 1.7
2017-Jan-10 00:33N 47°38' W 122°28'6 5.6
2017-Jan-09 23:33N 47°43' W 122°26'5 5.2
2017-Jan-09 22:33N 47°48' W 122°24'6 5.9
2017-Jan-09 21:33N 47°54' W 122°21'6 5.8
2017-Jan-09 20:33N 47°58' W 122°16'4 3.8
2017-Jan-09 19:33N 48°00' W 122°11'  

Dump ship's entire track history